Time;durP1;ratioP1;P1;durP2;ratioP2;P2;SDS_P1;SDS_P2;PMS_P1;PMS_P2;Temp;Humidity;BMP_temperature;BMP_pressure;BME280_temperature;BME280_humidity;BME280_pressure;Samples;Min_cycle;Max_cycle;Signal;HPM_P1;HPM_P2
2022/03/02 00:00:56;;;;;;;;;;;;;;;;;;5090602;28;19916;-83
2022/03/02 00:03:21;;;;;;;;;;;;;;;;;;5091214;28;19927;-83
2022/03/02 00:05:46;;;;;;;;;;;;;;;;;;5085153;28;19939;-83
2022/03/02 00:08:12;;;;;;;;;;;;;;;;;;5084929;28;19916;-83
2022/03/02 00:10:37;;;;;;;;;;;;;;;;;;5085090;28;19939;-83
2022/03/02 00:13:02;;;;;;;;;;;;;;;;;;5084923;28;19913;-83
2022/03/02 00:15:28;;;;;;;;;;;;;;;;;;5085742;28;19927;-83
2022/03/02 00:17:53;;;;;;;;;;;;;;;;;;5085070;28;19939;-83
2022/03/02 00:20:18;;;;;;;;;;;;;;;;;;5112354;28;19939;-83
2022/03/02 00:22:44;;;;;;;;;;;;;;;;;;5123775;28;20022;-84
2022/03/02 00:25:09;;;;;;;;;;;;;;;;;;5106882;28;19958;-83
2022/03/02 00:27:35;;;;;;;;;;;;;;;;;;5072884;28;20173;-83
2022/03/02 00:30:00;;;;;;;;;;;;;;;;;;5083115;28;19920;-83
2022/03/02 00:32:26;;;;;;;;;;;;;;;;;;5083864;28;19916;-83
2022/03/02 00:34:51;;;;;;;;;;;;;;;;;;5083680;28;19923;-83
2022/03/02 00:37:16;;;;;;;;;;;;;;;;;;5084210;28;19916;-83
2022/03/02 00:39:42;;;;;;;;;;;;;;;;;;5085399;28;19917;-83
2022/03/02 00:42:08;;;;;;;;;;;;;;;;;;5085053;28;20063;-83
2022/03/02 00:44:34;;;;;;;;;;;;;;;;;;5086217;28;19925;-82
2022/03/02 00:47:00;;;;;;;;;;;;;;;;;;5086194;28;20390;-83
2022/03/02 00:49:27;;;;;;;;;;;;;;;;;;5086565;28;19970;-82
2022/03/02 00:51:55;;;;;;;;;;;;;;;;;;5086124;28;19991;-83
2022/03/02 00:54:21;;;;;;;;;;;;;;;;;;5083822;28;19952;-83
2022/03/02 00:56:46;;;;;;;;;;;;;;;;;;5103724;28;19920;-83
2022/03/02 00:59:11;;;;;;;;;;;;;;;;;;5125882;28;19916;-82
2022/03/02 01:01:37;;;;;;;;;;;;;;;;;;5126760;28;19926;-83
2022/03/02 01:04:02;;;;;;;;;;;;;;;;;;5125847;28;19955;-83
2022/03/02 01:06:27;;;;;;;;;;;;;;;;;;5126720;28;19911;-83
2022/03/02 01:08:53;;;;;;;;;;;;;;;;;;5126702;28;19927;-82
2022/03/02 01:11:18;;;;;;;;;;;;;;;;;;5126579;28;19938;-82
2022/03/02 01:13:43;;;;;;;;;;;;;;;;;;5106253;28;19969;-82
2022/03/02 01:16:09;;;;;;;;;;;;;;;;;;5107798;28;19900;-82
2022/03/02 01:18:34;;;;;;;;;;;;;;;;;;5105910;28;19942;-82
2022/03/02 01:20:59;;;;;;;;;;;;;;;;;;5105435;28;19927;-82
2022/03/02 01:23:25;;;;;;;;;;;;;;;;;;5105103;28;19924;-82
2022/03/02 01:25:50;;;;;;;;;;;;;;;;;;5105736;28;19947;-82
2022/03/02 01:28:16;;;;;;;;;;;;;;;;;;5106419;28;19916;-83
2022/03/02 01:30:41;;;;;;;;;;;;;;;;;;5105823;28;19959;-83
2022/03/02 01:33:07;;;;;;;;;;;;;;;;;;5105105;28;19939;-82
2022/03/02 01:35:32;;;;;;;;;;;;;;;;;;5105248;28;19915;-82
2022/03/02 01:37:57;;;;;;;;;;;;;;;;;;5103931;28;19956;-82
2022/03/02 01:40:23;;;;;;;;;;;;;;;;;;5103549;28;19916;-82
2022/03/02 01:42:48;;;;;;;;;;;;;;;;;;5114556;28;19924;-82
2022/03/02 01:45:14;;;;;;;;;;;;;;;;;;5123793;28;19939;-82
2022/03/02 01:47:39;;;;;;;;;;;;;;;;;;5125188;28;19923;-82
2022/03/02 01:50:06;;;;;;;;;;;;;;;;;;5124365;28;19920;-82
2022/03/02 01:52:32;;;;;;;;;;;;;;;;;;5125778;28;20269;-82
2022/03/02 01:54:57;;;;;;;;;;;;;;;;;;5125925;28;19915;-81
2022/03/02 01:57:23;;;;;;;;;;;;;;;;;;5126493;28;19918;-82
2022/03/02 01:59:48;;;;;;;;;;;;;;;;;;5128143;28;19916;-83
2022/03/02 02:02:13;;;;;;;;;;;;;;;;;;5109231;28;19916;-83
2022/03/02 02:04:39;;;;;;;;;;;;;;;;;;5128156;28;19991;-82
2022/03/02 02:07:04;;;;;;;;;;;;;;;;;;5126416;28;19982;-83
2022/03/02 02:09:30;;;;;;;;;;;;;;;;;;5128888;28;20018;-82
2022/03/02 02:11:55;;;;;;;;;;;;;;;;;;5126657;28;19920;-82
2022/03/02 02:14:20;;;;;;;;;;;;;;;;;;5117444;28;19927;-82
2022/03/02 02:16:46;;;;;;;;;;;;;;;;;;5090660;28;19963;-82
2022/03/02 02:19:13;;;;;;;;;;;;;;;;;;5107258;28;19916;-82
2022/03/02 02:21:38;;;;;;;;;;;;;;;;;;5107075;28;19972;-82
2022/03/02 02:24:04;;;;;;;;;;;;;;;;;;5107508;28;19942;-82
2022/03/02 02:26:29;;;;;;;;;;;;;;;;;;5107476;28;20003;-82
2022/03/02 02:28:55;;;;;;;;;;;;;;;;;;5106636;28;20412;-82
2022/03/02 02:31:20;;;;;;;;;;;;;;;;;;5107354;28;19912;-82
2022/03/02 02:33:46;;;;;;;;;;;;;;;;;;5106513;28;19920;-82
2022/03/02 02:36:12;;;;;;;;;;;;;;;;;;5107886;28;19923;-82
2022/03/02 02:38:37;;;;;;;;;;;;;;;;;;5106840;28;19916;-82
2022/03/02 02:41:02;;;;;;;;;;;;;;;;;;5107941;28;19955;-82
2022/03/02 02:43:28;;;;;;;;;;;;;;;;;;5107316;28;19920;-82
2022/03/02 02:45:53;;;;;;;;;;;;;;;;;;5104898;28;20400;-82
2022/03/02 02:48:19;;;;;;;;;;;;;;;;;;5102417;28;19923;-82
2022/03/02 02:50:45;;;;;;;;;;;;;;;;;;5106074;28;19997;-82
2022/03/02 02:53:11;;;;;;;;;;;;;;;;;;5102934;28;20004;-83
2022/03/02 02:55:39;;;;;;;;;;;;;;;;;;5105398;28;19924;-82
2022/03/02 02:58:04;;;;;;;;;;;;;;;;;;5105212;28;19965;-83
2022/03/02 03:00:31;;;;;;;;;;;;;;;;;;5104658;28;19919;-83
2022/03/02 03:02:57;;;;;;;;;;;;;;;;;;5105479;28;19920;-82
2022/03/02 03:05:25;;;;;;;;;;;;;;;;;;5106651;28;19923;-82
2022/03/02 03:07:50;;;;;;;;;;;;;;;;;;5104114;28;20396;-82
2022/03/02 03:10:16;;;;;;;;;;;;;;;;;;5103681;28;19963;-82
2022/03/02 03:12:43;;;;;;;;;;;;;;;;;;5105681;28;19916;-81
2022/03/02 03:15:09;;;;;;;;;;;;;;;;;;5105409;28;19916;-79
2022/03/02 03:17:34;;;;;;;;;;;;;;;;;;5107230;28;19938;-80
2022/03/02 03:20:00;;;;;;;;;;;;;;;;;;5109980;28;19927;-81
2022/03/02 03:22:25;;;;;;;;;;;;;;;;;;5108851;28;19935;-82
2022/03/02 03:24:50;;;;;;;;;;;;;;;;;;5101742;28;20235;-81
2022/03/02 03:27:16;;;;;;;;;;;;;;;;;;5085325;28;19955;-80
2022/03/02 03:29:41;;;;;;;;;;;;;;;;;;5096468;28;19923;-80
2022/03/02 03:32:07;;;;;;;;;;;;;;;;;;5085910;28;19939;-81
2022/03/02 03:34:32;;;;;;;;;;;;;;;;;;5098727;28;19916;-81
2022/03/02 03:36:58;;;;;;;;;;;;;;;;;;5108292;28;19977;-81
2022/03/02 03:39:23;;;;;;;;;;;;;;;;;;5108344;28;19920;-81
2022/03/02 03:41:49;;;;;;;;;;;;;;;;;;5108642;28;19923;-81
2022/03/02 03:44:14;;;;;;;;;;;;;;;;;;5108332;28;19924;-81
2022/03/02 03:46:40;;;;;;;;;;;;;;;;;;5110512;28;19987;-81
2022/03/02 03:49:05;;;;;;;;;;;;;;;;;;5119405;28;19920;-81
2022/03/02 03:51:30;;;;;;;;;;;;;;;;;;5106013;28;19916;-81
2022/03/02 03:53:55;;;;;;;;;;;;;;;;;;5102695;28;19920;-80
2022/03/02 03:56:21;;;;;;;;;;;;;;;;;;5103182;28;19916;-81
2022/03/02 03:58:46;;;;;;;;;;;;;;;;;;5105316;28;19972;-82
2022/03/02 04:05:12;;;;;;;;;;;;;;;;;;5109524;28;19927;-82
2022/03/02 04:07:41;;;;;;;;;;;;;;;;;;5104948;28;19916;-82
2022/03/02 04:10:13;;;;;;;;;;;;;;;;;;5108181;28;19916;-83
2022/03/02 04:12:38;;;;;;;;;;;;;;;;;;5093397;28;19916;-82
2022/03/02 04:15:04;;;;;;;;;;;;;;;;;;5109792;28;19951;-82
2022/03/02 04:17:30;;;;;;;;;;;;;;;;;;5092859;28;19916;-82
2022/03/02 04:19:56;;;;;;;;;;;;;;;;;;5109977;28;19942;-82
2022/03/02 04:22:21;;;;;;;;;;;;;;;;;;5109084;28;19916;-82
2022/03/02 04:24:47;;;;;;;;;;;;;;;;;;5109955;28;19920;-82
2022/03/02 04:27:13;;;;;;;;;;;;;;;;;;5123865;28;19979;-82
2022/03/02 04:29:38;;;;;;;;;;;;;;;;;;5130962;28;19915;-82
2022/03/02 04:32:03;;;;;;;;;;;;;;;;;;5130848;28;19922;-82
2022/03/02 04:34:29;;;;;;;;;;;;;;;;;;5130411;28;19950;-82
2022/03/02 04:36:54;;;;;;;;;;;;;;;;;;5131151;28;19922;-82
2022/03/02 04:39:20;;;;;;;;;;;;;;;;;;5122944;28;19916;-82
2022/03/02 04:41:45;;;;;;;;;;;;;;;;;;5124167;28;20424;-82
2022/03/02 04:44:10;;;;;;;;;;;;;;;;;;5125240;28;19964;-82
2022/03/02 04:46:36;;;;;;;;;;;;;;;;;;5125422;28;20011;-82
2022/03/02 04:49:10;;;;;;;;;;;;;;;;;;5124036;28;20002;-82
2022/03/02 04:51:39;;;;;;;;;;;;;;;;;;5125693;28;19923;-82
2022/03/02 04:54:05;;;;;;;;;;;;;;;;;;5124524;28;20512;-82
2022/03/02 04:56:30;;;;;;;;;;;;;;;;;;5124761;28;19955;-82
2022/03/02 04:58:55;;;;;;;;;;;;;;;;;;5125049;28;19923;-82
2022/03/02 05:01:21;;;;;;;;;;;;;;;;;;5125356;28;20306;-82
2022/03/02 05:03:46;;;;;;;;;;;;;;;;;;5104877;28;19920;-82
2022/03/02 05:06:11;;;;;;;;;;;;;;;;;;5088677;28;19927;-82
2022/03/02 05:08:37;;;;;;;;;;;;;;;;;;5105873;28;19991;-82
2022/03/02 05:11:03;;;;;;;;;;;;;;;;;;5106194;28;19924;-82
2022/03/02 05:13:28;;;;;;;;;;;;;;;;;;5106042;28;20018;-83
2022/03/02 05:15:54;;;;;;;;;;;;;;;;;;5107192;28;19912;-83
2022/03/02 05:18:19;;;;;;;;;;;;;;;;;;5107065;28;19916;-83
2022/03/02 05:20:44;;;;;;;;;;;;;;;;;;5088951;28;19916;-81
2022/03/02 05:23:09;;;;;;;;;;;;;;;;;;5106517;28;20385;-81
2022/03/02 05:25:35;;;;;;;;;;;;;;;;;;5107012;28;19935;-81
2022/03/02 05:28:00;;;;;;;;;;;;;;;;;;5107412;28;19916;-81
2022/03/02 05:30:26;;;;;;;;;;;;;;;;;;5106652;28;20003;-82
2022/03/02 05:32:51;;;;;;;;;;;;;;;;;;5106854;28;19916;-81
2022/03/02 05:35:16;;;;;;;;;;;;;;;;;;5105892;28;19939;-81
2022/03/02 05:37:45;;;;;;;;;;;;;;;;;;5106402;28;19947;-81
2022/03/02 05:40:11;;;;;;;;;;;;;;;;;;5107242;28;19919;-82
2022/03/02 05:42:37;;;;;;;;;;;;;;;;;;5107020;28;19920;-82
2022/03/02 05:45:02;;;;;;;;;;;;;;;;;;5107206;28;19940;-82
2022/03/02 05:47:28;;;;;;;;;;;;;;;;;;5107205;28;19916;-81
2022/03/02 05:49:53;;;;;;;;;;;;;;;;;;5107375;28;19955;-81
2022/03/02 05:52:18;;;;;;;;;;;;;;;;;;5106906;28;19924;-81
2022/03/02 05:54:44;;;;;;;;;;;;;;;;;;5107936;28;19955;-82
2022/03/02 05:57:09;;;;;;;;;;;;;;;;;;5107542;28;19946;-81
2022/03/02 05:59:35;;;;;;;;;;;;;;;;;;5108972;28;19920;-82
2022/03/02 06:02:00;;;;;;;;;;;;;;;;;;5108309;28;19926;-81
2022/03/02 06:04:25;;;;;;;;;;;;;;;;;;5107907;28;19979;-82
2022/03/02 06:06:51;;;;;;;;;;;;;;;;;;5108729;28;19916;-82
2022/03/02 06:09:16;;;;;;;;;;;;;;;;;;5104795;28;19938;-82
2022/03/02 06:11:43;;;;;;;;;;;;;;;;;;5099686;28;19923;-82
2022/03/02 06:14:09;;;;;;;;;;;;;;;;;;5102077;28;19934;-82
2022/03/02 06:16:34;;;;;;;;;;;;;;;;;;5084844;28;19916;-81
2022/03/02 06:19:00;;;;;;;;;;;;;;;;;;5104156;28;19988;-81
2022/03/02 06:21:26;;;;;;;;;;;;;;;;;;5104607;28;19916;-81
2022/03/02 06:23:52;;;;;;;;;;;;;;;;;;5102711;28;19927;-81
2022/03/02 06:26:18;;;;;;;;;;;;;;;;;;5104688;28;19916;-80
2022/03/02 06:28:44;;;;;;;;;;;;;;;;;;5105134;28;19916;-81
2022/03/02 06:31:09;;;;;;;;;;;;;;;;;;5105680;28;19963;-80
2022/03/02 06:33:34;;;;;;;;;;;;;;;;;;5102854;28;19938;-84
2022/03/02 06:36:00;;;;;;;;;;;;;;;;;;5099627;28;19917;-83
2022/03/02 06:38:27;;;;;;;;;;;;;;;;;;5099607;28;19920;-85
2022/03/02 06:41:02;;;;;;;;;;;;;;;;;;5085907;28;19931;-84
2022/03/02 06:43:42;;;;;;;;;;;;;;;;;;5078386;28;20426;-89
2022/03/02 06:46:11;;;;;;;;;;;;;;;;;;5059682;28;19951;-86
2022/03/02 06:48:53;;;;;;;;;;;;;;;;;;5058730;28;19977;-80
2022/03/02 06:51:22;;;;;;;;;;;;;;;;;;5084362;28;19924;-78
2022/03/02 06:53:49;;;;;;;;;;;;;;;;;;5090187;28;19921;-78
2022/03/02 06:56:16;;;;;;;;;;;;;;;;;;5092492;28;19916;-79
2022/03/02 06:58:44;;;;;;;;;;;;;;;;;;5102401;28;19916;-83
2022/03/02 07:01:10;;;;;;;;;;;;;;;;;;5097550;28;20305;-80
2022/03/02 07:03:42;;;;;;;;;;;;;;;;;;5095175;28;19924;-81
2022/03/02 07:06:07;;;;;;;;;;;;;;;;;;5096197;28;19919;-79
2022/03/02 07:08:33;;;;;;;;;;;;;;;;;;5096453;28;19916;-80
2022/03/02 07:10:59;;;;;;;;;;;;;;;;;;5095707;28;19963;-80
2022/03/02 07:13:27;;;;;;;;;;;;;;;;;;5091787;28;19916;-79
2022/03/02 07:15:52;;;;;;;;;;;;;;;;;;5089724;28;19938;-79
2022/03/02 07:18:18;;;;;;;;;;;;;;;;;;5087962;28;19913;-79
2022/03/02 07:20:45;;;;;;;;;;;;;;;;;;5089058;28;19916;-79
2022/03/02 07:23:16;;;;;;;;;;;;;;;;;;5088983;28;19920;-79
2022/03/02 07:25:42;;;;;;;;;;;;;;;;;;5090431;28;19924;-80
2022/03/02 07:28:11;;;;;;;;;;;;;;;;;;5089039;28;19959;-79
2022/03/02 07:30:38;;;;;;;;;;;;;;;;;;5090232;28;19917;-79
2022/03/02 07:33:04;;;;;;;;;;;;;;;;;;5089317;28;19916;-80
2022/03/02 07:35:31;;;;;;;;;;;;;;;;;;5090401;28;19917;-79
2022/03/02 07:37:57;;;;;;;;;;;;;;;;;;5093910;28;19916;-80
2022/03/02 07:40:22;;;;;;;;;;;;;;;;;;5097427;28;19923;-80
2022/03/02 07:42:49;;;;;;;;;;;;;;;;;;5092018;28;19924;-84
2022/03/02 07:45:14;;;;;;;;;;;;;;;;;;5093677;28;20019;-84
2022/03/02 07:47:39;;;;;;;;;;;;;;;;;;5083119;28;19967;-82
2022/03/02 07:50:05;;;;;;;;;;;;;;;;;;5084860;28;20007;-83
2022/03/02 07:52:30;;;;;;;;;;;;;;;;;;5085971;28;19924;-83
2022/03/02 07:54:59;;;;;;;;;;;;;;;;;;5085681;28;19920;-85
2022/03/02 07:57:25;;;;;;;;;;;;;;;;;;5082416;28;19931;-81
2022/03/02 07:59:51;;;;;;;;;;;;;;;;;;5080175;28;19912;-80
2022/03/02 08:02:18;;;;;;;;;;;;;;;;;;5082116;28;19920;-83
2022/03/02 08:04:43;;;;;;;;;;;;;;;;;;5081263;28;20015;-83
2022/03/02 08:07:12;;;;;;;;;;;;;;;;;;5083835;28;19952;-84
2022/03/02 08:09:38;;;;;;;;;;;;;;;;;;5072100;28;19923;-87
2022/03/02 08:12:06;;;;;;;;;;;;;;;;;;5080616;28;19917;-81
2022/03/02 08:14:31;;;;;;;;;;;;;;;;;;5081762;28;19916;-82
2022/03/02 08:16:57;;;;;;;;;;;;;;;;;;5082030;28;20013;-82
2022/03/02 08:19:22;;;;;;;;;;;;;;;;;;5086942;28;19923;-82
2022/03/02 08:21:55;;;;;;;;;;;;;;;;;;5080886;28;19916;-82
2022/03/02 08:24:23;;;;;;;;;;;;;;;;;;5081997;28;19943;-81
2022/03/02 08:26:49;;;;;;;;;;;;;;;;;;5080575;28;20368;-81
2022/03/02 08:29:16;;;;;;;;;;;;;;;;;;5081530;28;19971;-80
2022/03/02 08:31:42;;;;;;;;;;;;;;;;;;5081349;28;19916;-79
2022/03/02 08:34:07;;;;;;;;;;;;;;;;;;5082583;28;19916;-82
2022/03/02 08:36:34;;;;;;;;;;;;;;;;;;5081366;28;19923;-83
2022/03/02 08:39:00;;;;;;;;;;;;;;;;;;5083579;28;19917;-83
2022/03/02 08:41:25;;;;;;;;;;;;;;;;;;5102152;28;20332;-80
2022/03/02 08:43:50;;;;;;;;;;;;;;;;;;5105239;28;19920;-81
2022/03/02 08:46:16;;;;;;;;;;;;;;;;;;5111077;28;19938;-81
2022/03/02 08:48:41;;;;;;;;;;;;;;;;;;5105063;28;20408;-81
2022/03/02 08:51:07;;;;;;;;;;;;;;;;;;5104104;28;20003;-79
2022/03/02 08:53:33;;;;;;;;;;;;;;;;;;5103652;28;19924;-81
2022/03/02 08:55:59;;;;;;;;;;;;;;;;;;5087682;28;19917;-81
2022/03/02 08:58:26;;;;;;;;;;;;;;;;;;5083224;28;19921;-81
2022/03/02 09:00:52;;;;;;;;;;;;;;;;;;5081250;28;19923;-81
2022/03/02 09:03:18;;;;;;;;;;;;;;;;;;5083558;28;19927;-81
2022/03/02 09:05:44;;;;;;;;;;;;;;;;;;5084026;28;19917;-81
2022/03/02 09:08:09;;;;;;;;;;;;;;;;;;5082978;28;19916;-80
2022/03/02 09:10:35;;;;;;;;;;;;;;;;;;5082251;28;19916;-81
2022/03/02 09:13:02;;;;;;;;;;;;;;;;;;5084428;28;19966;-81
2022/03/02 09:15:27;;;;;;;;;;;;;;;;;;5088899;28;20335;-81
2022/03/02 09:17:53;;;;;;;;;;;;;;;;;;5103832;28;19916;-81
2022/03/02 09:20:18;;;;;;;;;;;;;;;;;;5103148;28;20010;-81
2022/03/02 09:22:43;;;;;;;;;;;;;;;;;;5101970;28;19916;-81
2022/03/02 09:25:09;;;;;;;;;;;;;;;;;;5100873;28;19916;-84
2022/03/02 09:27:35;;;;;;;;;;;;;;;;;;5104720;28;20566;-80
2022/03/02 09:30:03;;;;;;;;;;;;;;;;;;5100502;28;19972;-79
2022/03/02 09:32:30;;;;;;;;;;;;;;;;;;5097179;28;19916;-77
2022/03/02 09:34:57;;;;;;;;;;;;;;;;;;5096556;28;19923;-78
2022/03/02 09:37:23;;;;;;;;;;;;;;;;;;5095834;28;20037;-77
2022/03/02 09:39:49;;;;;;;;;;;;;;;;;;5100857;28;19951;-78
2022/03/02 09:42:18;;;;;;;;;;;;;;;;;;5099569;28;19916;-78
2022/03/02 09:44:47;;;;;;;;;;;;;;;;;;5098478;28;19935;-78
2022/03/02 09:47:17;;;;;;;;;;;;;;;;;;5100834;28;19916;-78
2022/03/02 09:49:48;;;;;;;;;;;;;;;;;;5076634;28;20370;-78
2022/03/02 09:52:16;;;;;;;;;;;;;;;;;;5090897;28;19923;-78
2022/03/02 09:54:45;;;;;;;;;;;;;;;;;;5099624;28;20341;-77
2022/03/02 09:57:10;;;;;;;;;;;;;;;;;;5100629;28;21408;-78
2022/03/02 09:59:38;;;;;;;;;;;;;;;;;;5091685;28;21277;-78
2022/03/02 10:02:07;;;;;;;;;;;;;;;;;;5083704;28;20404;-78
2022/03/02 10:04:33;;;;;;;;;;;;;;;;;;5096175;28;19927;-79
2022/03/02 10:07:31;;;;;;;;;;;;;;;;;;5106572;28;19916;-78
2022/03/02 10:09:51;;;;;;;;;;;;;;;;;;5098701;28;19923;-79
2022/03/02 10:12:20;;;;;;;;;;;;;;;;;;5087471;28;19971;-79
2022/03/02 10:14:45;;;;;;;;;;;;;;;;;;5101219;28;19929;-77
2022/03/02 10:17:11;;;;;;;;;;;;;;;;;;5103068;28;20347;-78
2022/03/02 10:19:43;;;;;;;;;;;;;;;;;;5096120;28;19923;-77
2022/03/02 10:22:20;;;;;;;;;;;;;;;;;;5099709;28;19916;-78
2022/03/02 10:24:48;;;;;;;;;;;;;;;;;;5097985;28;19935;-78
2022/03/02 10:27:26;;;;;;;;;;;;;;;;;;5098139;28;20408;-79
2022/03/02 10:30:02;;;;;;;;;;;;;;;;;;5098822;28;20303;-78
2022/03/02 10:32:32;;;;;;;;;;;;;;;;;;5097610;28;19922;-77
2022/03/02 10:35:00;;;;;;;;;;;;;;;;;;5098387;28;20014;-78
2022/03/02 10:37:25;;;;;;;;;;;;;;;;;;5096504;28;19918;-77
2022/03/02 10:39:53;;;;;;;;;;;;;;;;;;5098372;28;20002;-78
2022/03/02 10:42:21;;;;;;;;;;;;;;;;;;5107900;28;20412;-79
2022/03/02 10:45:07;;;;;;;;;;;;;;;;;;5110782;28;19920;-80
2022/03/02 10:47:35;;;;;;;;;;;;;;;;;;5127855;28;19916;-80
2022/03/02 10:50:01;;;;;;;;;;;;;;;;;;5124792;28;20291;-80
2022/03/02 10:52:28;;;;;;;;;;;;;;;;;;5120126;28;19916;-78
2022/03/02 10:54:56;;;;;;;;;;;;;;;;;;5119857;28;20030;-82
2022/03/02 10:57:24;;;;;;;;;;;;;;;;;;5119420;28;19915;-81
2022/03/02 10:59:51;;;;;;;;;;;;;;;;;;5118341;28;19915;-82
2022/03/02 11:02:20;;;;;;;;;;;;;;;;;;5118587;28;19972;-84
2022/03/02 11:04:46;;;;;;;;;;;;;;;;;;5116875;28;20055;-82
2022/03/02 11:07:11;;;;;;;;;;;;;;;;;;5118768;28;20293;-83
2022/03/02 11:09:37;;;;;;;;;;;;;;;;;;5117611;28;19916;-79
2022/03/02 11:12:02;;;;;;;;;;;;;;;;;;5113332;28;20424;-79
2022/03/02 11:14:28;;;;;;;;;;;;;;;;;;5097790;28;20010;-78
2022/03/02 11:17:13;;;;;;;;;;;;;;;;;;5097649;28;19920;-77
2022/03/02 11:19:45;;;;;;;;;;;;;;;;;;5096062;28;19917;-77
2022/03/02 11:22:12;;;;;;;;;;;;;;;;;;5097295;28;19916;-78
2022/03/02 11:24:38;;;;;;;;;;;;;;;;;;5097019;28;19920;-77
2022/03/02 11:27:04;;;;;;;;;;;;;;;;;;5091760;28;19938;-78
2022/03/02 11:29:31;;;;;;;;;;;;;;;;;;5077300;28;20386;-78
2022/03/02 11:31:57;;;;;;;;;;;;;;;;;;5095713;28;19927;-77
2022/03/02 11:34:28;;;;;;;;;;;;;;;;;;5095882;28;19916;-77
2022/03/02 11:36:58;;;;;;;;;;;;;;;;;;5097206;28;19958;-77
2022/03/02 11:39:25;;;;;;;;;;;;;;;;;;5097552;28;19951;-77
2022/03/02 11:41:51;;;;;;;;;;;;;;;;;;5096848;28;19916;-78
2022/03/02 11:44:28;;;;;;;;;;;;;;;;;;5096724;28;19923;-78
2022/03/02 11:46:54;;;;;;;;;;;;;;;;;;5096741;28;19917;-77
2022/03/02 11:49:19;;;;;;;;;;;;;;;;;;5096896;28;19918;-77
2022/03/02 11:51:44;;;;;;;;;;;;;;;;;;5096703;28;19922;-77
2022/03/02 11:54:10;;;;;;;;;;;;;;;;;;5096842;28;20011;-78
2022/03/02 11:56:36;;;;;;;;;;;;;;;;;;5096495;28;19927;-78
2022/03/02 11:59:09;;;;;;;;;;;;;;;;;;5095765;28;19916;-78
2022/03/02 12:01:40;;;;;;;;;;;;;;;;;;5096699;28;19923;-78
2022/03/02 12:04:06;;;;;;;;;;;;;;;;;;5096737;28;19927;-78
2022/03/02 12:06:38;;;;;;;;;;;;;;;;;;5096612;28;19916;-77
2022/03/02 12:09:04;;;;;;;;;;;;;;;;;;5096683;28;20506;-77
2022/03/02 12:11:34;;;;;;;;;;;;;;;;;;5096260;28;19976;-77
2022/03/02 12:14:09;;;;;;;;;;;;;;;;;;5096445;28;20288;-78
2022/03/02 12:16:35;;;;;;;;;;;;;;;;;;5077065;28;19924;-77
2022/03/02 12:19:01;;;;;;;;;;;;;;;;;;5076421;28;19939;-77
2022/03/02 12:21:26;;;;;;;;;;;;;;;;;;5075758;28;19916;-78
2022/03/02 12:23:53;;;;;;;;;;;;;;;;;;5075709;28;19971;-77
2022/03/02 12:26:18;;;;;;;;;;;;;;;;;;5075975;28;19923;-77
2022/03/02 12:28:53;;;;;;;;;;;;;;;;;;5075949;28;20003;-78
2022/03/02 12:31:27;;;;;;;;;;;;;;;;;;5075524;28;19920;-76
2022/03/02 12:33:58;;;;;;;;;;;;;;;;;;5076098;28;19921;-77
2022/03/02 12:36:24;;;;;;;;;;;;;;;;;;5076087;28;19960;-78
2022/03/02 12:38:50;;;;;;;;;;;;;;;;;;5075828;28;20010;-77
2022/03/02 12:41:15;;;;;;;;;;;;;;;;;;5075487;28;19960;-77
2022/03/02 12:43:41;;;;;;;;;;;;;;;;;;5075648;28;19970;-77
2022/03/02 12:46:06;;;;;;;;;;;;;;;;;;5075637;28;19959;-77
2022/03/02 12:48:33;;;;;;;;;;;;;;;;;;5074155;28;19920;-78
2022/03/02 12:50:58;;;;;;;;;;;;;;;;;;5075140;28;19916;-77
2022/03/02 12:53:24;;;;;;;;;;;;;;;;;;5075068;28;19920;-78
2022/03/02 12:55:49;;;;;;;;;;;;;;;;;;5075326;28;19923;-77
2022/03/02 12:58:14;;;;;;;;;;;;;;;;;;5075257;28;19962;-77
2022/03/02 13:00:40;;;;;;;;;;;;;;;;;;5075256;28;20405;-77
2022/03/02 13:03:06;;;;;;;;;;;;;;;;;;5075306;28;19924;-78
2022/03/02 13:05:35;;;;;;;;;;;;;;;;;;5074875;28;19916;-78
2022/03/02 13:08:01;;;;;;;;;;;;;;;;;;5075909;28;19952;-80
2022/03/02 13:10:26;;;;;;;;;;;;;;;;;;5078927;28;19939;-79
2022/03/02 13:12:53;;;;;;;;;;;;;;;;;;5085848;28;20007;-82
2022/03/02 13:15:18;;;;;;;;;;;;;;;;;;5098472;28;19916;-80
2022/03/02 13:17:44;;;;;;;;;;;;;;;;;;5094733;28;19962;-77
2022/03/02 13:20:16;;;;;;;;;;;;;;;;;;5102056;28;19916;-79
2022/03/02 13:22:42;;;;;;;;;;;;;;;;;;5107622;28;19916;-80
2022/03/02 13:25:08;;;;;;;;;;;;;;;;;;5099292;28;19951;-80
2022/03/02 13:27:36;;;;;;;;;;;;;;;;;;5122039;28;19961;-79
2022/03/02 13:30:08;;;;;;;;;;;;;;;;;;5124112;28;19915;-79
2022/03/02 13:32:42;;;;;;;;;;;;;;;;;;5121042;28;19977;-79
2022/03/02 13:35:09;;;;;;;;;;;;;;;;;;5121523;28;19919;-80
2022/03/02 13:37:53;;;;;;;;;;;;;;;;;;5125387;28;19912;-79
2022/03/02 13:40:33;;;;;;;;;;;;;;;;;;5120625;27;19916;-78
2022/03/02 13:43:04;;;;;;;;;;;;;;;;;;5119326;28;20377;-78
2022/03/02 13:45:30;;;;;;;;;;;;;;;;;;5117480;28;20335;-79
2022/03/02 13:48:13;;;;;;;;;;;;;;;;;;5119092;28;19998;-79
2022/03/02 13:50:55;;;;;;;;;;;;;;;;;;5119486;28;19935;-80
2022/03/02 13:53:29;;;;;;;;;;;;;;;;;;5124620;28;19923;-78
2022/03/02 13:56:02;;;;;;;;;;;;;;;;;;5124883;28;19979;-78
2022/03/02 13:58:28;;;;;;;;;;;;;;;;;;5125248;28;20000;-78
2022/03/02 14:00:53;;;;;;;;;;;;;;;;;;5124426;28;19911;-78
2022/03/02 14:03:29;;;;;;;;;;;;;;;;;;5123288;28;19920;-78
2022/03/02 14:05:56;;;;;;;;;;;;;;;;;;5124642;28;19951;-78
2022/03/02 14:08:22;;;;;;;;;;;;;;;;;;5124038;28;19923;-78
2022/03/02 14:10:47;;;;;;;;;;;;;;;;;;5124124;28;19916;-78
2022/03/02 14:13:12;;;;;;;;;;;;;;;;;;5122931;28;19923;-78
2022/03/02 14:15:37;;;;;;;;;;;;;;;;;;5122302;28;20369;-78
2022/03/02 14:18:07;;;;;;;;;;;;;;;;;;5121339;28;19915;-78
2022/03/02 14:20:34;;;;;;;;;;;;;;;;;;5121963;28;19975;-78
2022/03/02 14:23:01;;;;;;;;;;;;;;;;;;5121727;28;20416;-78
2022/03/02 14:25:26;;;;;;;;;;;;;;;;;;5121822;28;19942;-78
2022/03/02 14:27:55;;;;;;;;;;;;;;;;;;5122230;28;19974;-78
2022/03/02 14:30:20;;;;;;;;;;;;;;;;;;5122639;28;20027;-78
2022/03/02 14:32:48;;;;;;;;;;;;;;;;;;5122666;28;20363;-78
2022/03/02 14:35:22;;;;;;;;;;;;;;;;;;5122466;28;19923;-78
2022/03/02 14:37:48;;;;;;;;;;;;;;;;;;5121163;28;19951;-78
2022/03/02 14:40:17;;;;;;;;;;;;;;;;;;5122233;28;19955;-78
2022/03/02 14:42:45;;;;;;;;;;;;;;;;;;5122027;28;19988;-78
2022/03/02 14:45:25;;;;;;;;;;;;;;;;;;5121022;28;19920;-78
2022/03/02 14:47:53;;;;;;;;;;;;;;;;;;5120986;28;19915;-78
2022/03/02 14:50:21;;;;;;;;;;;;;;;;;;5121284;28;19915;-78
2022/03/02 14:52:57;;;;;;;;;;;;;;;;;;5121214;28;19958;-78
2022/03/02 14:55:22;;;;;;;;;;;;;;;;;;5106032;28;19934;-78
2022/03/02 14:57:48;;;;;;;;;;;;;;;;;;5100379;28;19923;-78
2022/03/02 15:00:13;;;;;;;;;;;;;;;;;;5100745;28;19974;-79
2022/03/02 15:02:39;;;;;;;;;;;;;;;;;;5100914;28;19916;-78
2022/03/02 15:05:05;;;;;;;;;;;;;;;;;;5100642;28;19947;-78
2022/03/02 15:07:37;;;;;;;;;;;;;;;;;;5100474;28;19916;-78
2022/03/02 15:10:08;;;;;;;;;;;;;;;;;;5098468;28;19920;-78
2022/03/02 15:12:38;;;;;;;;;;;;;;;;;;5099120;28;19916;-78
2022/03/02 15:15:15;;;;;;;;;;;;;;;;;;5100317;28;19916;-78
2022/03/02 15:17:41;;;;;;;;;;;;;;;;;;5098891;28;19923;-78
2022/03/02 15:20:10;;;;;;;;;;;;;;;;;;5100584;28;19916;-78
2022/03/02 15:22:37;;;;;;;;;;;;;;;;;;5097863;28;20391;-78
2022/03/02 15:25:05;;;;;;;;;;;;;;;;;;5099063;28;19924;-78
2022/03/02 15:27:30;;;;;;;;;;;;;;;;;;5100224;28;19916;-78
2022/03/02 15:30:06;;;;;;;;;;;;;;;;;;5098968;28;19922;-78
2022/03/02 15:32:33;;;;;;;;;;;;;;;;;;5097061;28;19916;-78
2022/03/02 15:35:00;;;;;;;;;;;;;;;;;;5099421;28;19916;-78
2022/03/02 15:37:29;;;;;;;;;;;;;;;;;;5099003;28;19948;-78
2022/03/02 15:40:00;;;;;;;;;;;;;;;;;;5097425;28;19960;-77
2022/03/02 15:42:27;;;;;;;;;;;;;;;;;;5098133;28;19995;-78
2022/03/02 15:44:59;;;;;;;;;;;;;;;;;;5098023;28;20069;-78
2022/03/02 15:47:28;;;;;;;;;;;;;;;;;;5097685;28;20004;-78
2022/03/02 15:49:55;;;;;;;;;;;;;;;;;;5099695;28;20370;-78
2022/03/02 15:52:29;;;;;;;;;;;;;;;;;;5099493;28;19916;-78
2022/03/02 15:54:56;;;;;;;;;;;;;;;;;;5099487;28;20415;-78
2022/03/02 15:57:22;;;;;;;;;;;;;;;;;;5099392;28;19916;-78
2022/03/02 15:59:48;;;;;;;;;;;;;;;;;;5101053;28;19920;-78
2022/03/02 16:02:27;;;;;;;;;;;;;;;;;;5101296;28;19920;-78
2022/03/02 16:05:22;;;;;;;;;;;;;;;;;;5103164;28;19920;-78
2022/03/02 16:07:57;;;;;;;;;;;;;;;;;;5084388;28;19916;-78
2022/03/02 16:10:23;;;;;;;;;;;;;;;;;;5103719;28;19938;-78
2022/03/02 16:12:50;;;;;;;;;;;;;;;;;;5102144;28;20378;-78
2022/03/02 16:15:17;;;;;;;;;;;;;;;;;;5102438;28;19947;-78
2022/03/02 16:17:49;;;;;;;;;;;;;;;;;;5103089;28;20382;-78
2022/03/02 16:20:22;;;;;;;;;;;;;;;;;;5103353;28;19916;-78
2022/03/02 16:23:06;;;;;;;;;;;;;;;;;;5103743;28;19916;-78
2022/03/02 16:25:32;;;;;;;;;;;;;;;;;;5103690;28;19920;-78
2022/03/02 16:28:02;;;;;;;;;;;;;;;;;;5103097;28;19922;-78
2022/03/02 16:30:29;;;;;;;;;;;;;;;;;;5103347;28;20251;-78
2022/03/02 16:32:55;;;;;;;;;;;;;;;;;;5102177;28;19917;-78
2022/03/02 16:35:23;;;;;;;;;;;;;;;;;;5101986;28;20011;-78
2022/03/02 16:37:58;;;;;;;;;;;;;;;;;;5101730;28;19965;-78
2022/03/02 16:40:24;;;;;;;;;;;;;;;;;;5102781;28;19916;-78
2022/03/02 16:42:50;;;;;;;;;;;;;;;;;;5103319;28;19916;-78
2022/03/02 16:45:16;;;;;;;;;;;;;;;;;;5101658;28;19931;-78
2022/03/02 16:47:42;;;;;;;;;;;;;;;;;;5101742;28;20074;-78
2022/03/02 16:50:07;;;;;;;;;;;;;;;;;;5100169;28;19916;-78